This is the latest recevied weather packets stored in our database for station/object DG0PX-12. If no packets are shown the sender has not sent any weather packets the latest 1 day(s).
| Time | Temp. | Humidity | Pressure | Rain* | Wind** | Luminosity | Snow |
|---|---|---|---|---|---|---|---|
| 1777788005 | 15° C | 51% | 948.8 hPa | - | - | - | - |
| 1777787105 | 14.44° C | 49% | 948.7 hPa | - | - | - | - |
| 1777786205 | 14.44° C | 50% | 948.7 hPa | - | - | - | - |
| 1777785305 | 11.67° C | 60% | 948.7 hPa | - | - | - | - |
| 1777784405 | 12.22° C | 60% | 948.6 hPa | - | - | - | - |
| 1777783505 | 11.11° C | 59% | 948.6 hPa | - | - | - | - |
| 1777782604 | 10.56° C | 60% | 948.7 hPa | - | - | - | - |
| 1777781704 | 11.11° C | 61% | 948.7 hPa | - | - | - | - |
| 1777780804 | 9.44° C | 70% | 948.5 hPa | - | - | - | - |
| 1777779904 | 10° C | 63% | 948.5 hPa | - | - | - | - |
| 1777779003 | 8.89° C | 69% | 948.5 hPa | - | - | - | - |
| 1777778103 | 8.33° C | 71% | 948.4 hPa | - | - | - | - |
| 1777777203 | 10.56° C | 61% | 948.4 hPa | - | - | - | - |
| 1777776302 | 9.44° C | 64% | 948.4 hPa | - | - | - | - |
| 1777775402 | 10° C | 66% | 948.4 hPa | - | - | - | - |
| 1777774502 | 10° C | 65% | 948.6 hPa | - | - | - | - |
| 1777773602 | 10° C | 64% | 948.5 hPa | - | - | - | - |
| 1777772702 | 10.56° C | 65% | 948.6 hPa | - | - | - | - |
| 1777771802 | 10.56° C | 61% | 948.7 hPa | - | - | - | - |
| 1777770901 | 11.11° C | 61% | 948.8 hPa | - | - | - | - |
| 1777770001 | 10.56° C | 60% | 948.9 hPa | - | - | - | - |
| 1777769101 | 11.11° C | 65% | 949 hPa | - | - | - | - |
| 1777768201 | 10° C | 67% | 949.2 hPa | - | - | - | - |
| 1777767301 | 11.11° C | 61% | 949.2 hPa | - | - | - | - |
| 1777766401 | 11.11° C | 66% | 949.5 hPa | - | - | - | - |
* Rain since midnight (hover to see other rain measurements)
** Current wind speed in m/s (hover to see current wind gust speed)